Time;durP1;ratioP1;P1;durP2;ratioP2;P2;SDS_P1;SDS_P2;PMS_P1;PMS_P2;Temp;Humidity;BMP_temperature;BMP_pressure;BME280_temperature;BME280_humidity;BME280_pressure;Samples;Min_cycle;Max_cycle;Signal;HPM_P1;HPM_P2
2021/05/05 00:01:04;;;;;;;1.90;0.80;;;;;;;8.39;73.67;95558.34;5035791;28;20186;-67
2021/05/05 00:03:30;;;;;;;1.23;0.80;;;;;;;8.66;72.90;95548.31;5037005;28;20200;-67
2021/05/05 00:05:56;;;;;;;2.63;0.63;;;;;;;8.44;73.22;95539.53;5037688;28;20422;-67
2021/05/05 00:08:23;;;;;;;0.80;0.63;;;;;;;8.45;72.90;95534.13;5037375;28;20176;-67
2021/05/05 00:10:49;;;;;;;1.97;0.70;;;;;;;8.55;73.19;95525.25;5035698;28;20453;-68
2021/05/05 00:13:15;;;;;;;2.50;0.80;;;;;;;8.40;73.38;95533.03;5034843;28;20908;-66
2021/05/05 00:15:40;;;;;;;1.10;0.77;;;;;;;8.84;71.69;95524.41;5035728;28;20422;-67
2021/05/05 00:18:06;;;;;;;1.00;0.60;;;;;;;8.81;72.37;95521.38;5035073;28;20466;-67
2021/05/05 00:20:32;;;;;;;1.27;0.70;;;;;;;8.45;72.66;95541.94;5041611;28;20208;-67
2021/05/05 00:22:58;;;;;;;1.80;0.77;;;;;;;8.32;73.18;95549.59;5034398;28;20956;-67
2021/05/05 00:25:23;;;;;;;2.63;0.97;;;;;;;8.38;72.85;95551.50;5032861;28;20344;-67
2021/05/05 00:27:50;;;;;;;2.37;0.80;;;;;;;8.58;72.65;95557.03;5033025;28;20233;-66
2021/05/05 00:30:16;;;;;;;1.10;0.90;;;;;;;8.65;72.44;95558.91;5033815;28;20183;-68
2021/05/05 00:32:42;;;;;;;1.30;0.80;;;;;;;8.49;73.04;95563.34;5036423;28;20952;-68
2021/05/05 00:35:08;;;;;;;1.40;0.80;;;;;;;8.39;72.20;95552.31;5036955;28;20443;-68
2021/05/05 00:37:34;;;;;;;1.40;0.70;;;;;;;8.44;72.90;95544.75;5018866;28;20218;-68
2021/05/05 00:39:59;;;;;;;1.67;0.80;;;;;;;8.66;72.48;95537.84;5018691;28;20418;-67
2021/05/05 00:42:25;;;;;;;2.37;0.90;;;;;;;8.22;72.87;95536.00;5035792;28;20234;-68
2021/05/05 00:44:57;;;;;;;1.30;0.80;;;;;;;8.26;73.42;95525.00;5035846;28;20214;-66
2021/05/05 00:47:23;;;;;;;0.90;0.67;;;;;;;8.39;72.76;95521.81;5035032;28;20184;-66
2021/05/05 00:49:48;;;;;;;2.40;1.00;;;;;;;8.20;72.71;95511.88;5018207;28;20448;-66
2021/05/05 00:52:14;;;;;;;1.53;1.00;;;;;;;8.47;72.49;95513.06;5034541;28;20469;-67
2021/05/05 00:54:39;;;;;;;4.33;1.10;;;;;;;8.38;72.84;95509.75;5035458;28;20799;-67
2021/05/05 00:57:06;;;;;;;3.37;1.10;;;;;;;8.49;72.39;95505.91;5034571;28;20203;-67
2021/05/05 00:59:32;;;;;;;3.13;0.80;;;;;;;8.33;73.38;95508.66;5033235;28;20199;-67
2021/05/05 01:01:57;;;;;;;3.13;1.00;;;;;;;8.75;71.74;95483.72;5034311;28;20422;-67
2021/05/05 01:04:23;;;;;;;2.43;0.80;;;;;;;8.02;73.13;95483.50;5035239;28;20204;-68
2021/05/05 01:06:48;;;;;;;1.00;0.87;;;;;;;8.33;73.08;95485.97;5033402;28;20180;-67
2021/05/05 01:09:15;;;;;;;4.77;0.90;;;;;;;8.61;71.55;95480.13;5050065;28;20179;-68
2021/05/05 01:11:41;;;;;;;1.43;0.70;;;;;;;8.59;72.30;95463.81;5042858;28;20184;-66
2021/05/05 01:14:07;;;;;;;2.30;1.10;;;;;;;8.38;72.48;95456.72;5045022;28;20442;-66
2021/05/05 01:16:33;;;;;;;1.10;0.87;;;;;;;8.51;71.99;95463.94;5033821;28;20462;-67
2021/05/05 01:18:58;;;;;;;1.27;0.80;;;;;;;8.53;72.21;95469.78;5034421;28;20184;-67
2021/05/05 01:21:24;;;;;;;1.83;1.20;;;;;;;8.56;72.07;95480.69;5037490;28;20180;-67
2021/05/05 01:23:49;;;;;;;1.43;1.00;;;;;;;8.53;72.35;95481.03;5032165;28;20222;-67
2021/05/05 01:26:15;;;;;;;3.00;1.03;;;;;;;8.38;71.21;95475.00;5032577;28;20180;-67
2021/05/05 01:28:44;;;;;;;5.60;1.40;;;;;;;8.55;71.13;95491.31;5031370;28;20275;-67
2021/05/05 01:31:12;;;;;;;3.73;1.07;;;;;;;8.75;70.65;95478.50;5033113;28;20187;-67
2021/05/05 01:33:38;;;;;;;0.90;0.70;;;;;;;8.26;71.53;95479.84;5032604;28;20442;-68
2021/05/05 01:36:05;;;;;;;1.37;0.70;;;;;;;8.49;71.21;95482.41;5037233;28;20516;-68
2021/05/05 01:38:31;;;;;;;2.60;0.93;;;;;;;8.04;72.18;95481.53;5034753;28;20429;-68
2021/05/05 01:40:57;;;;;;;3.10;1.30;;;;;;;7.79;73.37;95479.16;5033625;28;20418;-69
2021/05/05 01:43:22;;;;;;;2.13;1.07;;;;;;;7.87;73.74;95483.50;5037620;28;20290;-70
2021/05/05 01:45:48;;;;;;;2.43;1.00;;;;;;;7.86;75.22;95479.28;5035623;28;20281;-70
2021/05/05 01:48:15;;;;;;;2.23;0.87;;;;;;;7.92;73.93;95481.97;5035468;28;20182;-69
2021/05/05 01:50:40;;;;;;;2.50;1.13;;;;;;;8.63;71.99;95469.53;5035088;28;20246;-68
2021/05/05 01:53:06;;;;;;;3.70;1.20;;;;;;;8.73;71.32;95465.63;5038322;28;20517;-70
2021/05/05 01:55:32;;;;;;;1.33;0.90;;;;;;;8.19;73.32;95473.75;5043689;28;20191;-68
2021/05/05 01:57:57;;;;;;;2.50;1.03;;;;;;;8.17;73.98;95467.91;5040405;28;20281;-68
2021/05/05 02:00:25;;;;;;;2.20;0.93;;;;;;;8.50;73.61;95462.31;5036707;28;20207;-71
2021/05/05 02:02:51;;;;;;;2.60;1.00;;;;;;;8.92;70.92;95471.25;5039099;28;20626;-68
2021/05/05 02:05:17;;;;;;;1.87;1.00;;;;;;;8.74;71.77;95471.66;5039629;28;20480;-67
2021/05/05 02:07:43;;;;;;;1.97;1.10;;;;;;;8.49;72.58;95474.56;5040475;28;20184;-67
2021/05/05 02:10:11;;;;;;;3.63;1.10;;;;;;;8.00;74.79;95466.25;5027130;28;20458;-68
2021/05/05 02:12:37;;;;;;;1.30;0.80;;;;;;;7.95;74.82;95470.38;5061915;28;20425;-67
2021/05/05 02:15:04;;;;;;;1.23;0.87;;;;;;;8.45;73.48;95458.41;5042375;28;20477;-67
2021/05/05 02:17:30;;;;;;;5.30;1.00;;;;;;;8.15;73.48;95452.41;5036894;28;20290;-66
2021/05/05 02:19:55;;;;;;;2.80;1.10;;;;;;;8.30;73.27;95463.66;5036400;28;20464;-67
2021/05/05 02:22:21;;;;;;;1.83;0.90;;;;;;;8.79;71.49;95456.22;5035896;28;20282;-67
2021/05/05 02:24:47;;;;;;;1.87;0.93;;;;;;;8.66;71.25;95454.28;5035436;28;20200;-67
2021/05/05 02:27:12;;;;;;;1.17;0.80;;;;;;;8.37;72.96;95466.34;5037326;28;20631;-68
2021/05/05 02:29:38;;;;;;;0.87;0.70;;;;;;;8.38;72.68;95452.31;5058310;28;20184;-67
2021/05/05 02:32:08;;;;;;;4.13;2.20;;;;;;;8.60;72.09;95465.44;5036973;28;20630;-66
2021/05/05 02:34:36;;;;;;;2.23;1.10;;;;;;;8.52;72.67;95465.56;5036033;28;20204;-65
2021/05/05 02:37:02;;;;;;;4.13;1.17;;;;;;;8.44;73.11;95466.44;5027348;28;20494;-68
2021/05/05 02:39:27;;;;;;;1.43;0.77;;;;;;;8.81;71.82;95472.53;5052028;28;20967;-67
2021/05/05 02:41:53;;;;;;;1.77;0.80;;;;;;;8.03;75.04;95483.34;5051989;28;20434;-68
2021/05/05 02:44:19;;;;;;;4.10;0.97;;;;;;;7.98;74.85;95483.06;5036160;28;20203;-66
2021/05/05 02:46:44;;;;;;;1.87;0.80;;;;;;;8.46;73.83;95482.72;5036990;28;20225;-66
2021/05/05 02:49:10;;;;;;;2.40;1.03;;;;;;;8.84;72.52;95492.25;5036305;28;20183;-67
2021/05/05 02:51:36;;;;;;;3.00;1.07;;;;;;;8.61;72.95;95498.41;5035601;28;20211;-66
2021/05/05 02:54:02;;;;;;;1.87;1.00;;;;;;;8.50;73.96;95491.03;5036110;28;20199;-67
2021/05/05 02:56:28;;;;;;;1.07;0.90;;;;;;;8.83;72.82;95490.63;5035904;28;20488;-67
2021/05/05 02:58:54;;;;;;;2.40;1.70;;;;;;;8.96;71.46;95482.16;5035290;28;20458;-68
2021/05/05 03:01:19;;;;;;;2.63;0.93;;;;;;;9.04;71.20;95482.84;5036123;28;20192;-68
2021/05/05 03:03:45;;;;;;;2.03;0.93;;;;;;;8.95;70.85;95483.13;5018384;28;20446;-66
2021/05/05 03:06:10;;;;;;;1.60;1.00;;;;;;;9.17;70.70;95479.56;5036175;28;20179;-67
2021/05/05 03:08:36;;;;;;;1.00;0.90;;;;;;;9.19;71.02;95474.16;5036609;28;20826;-67
2021/05/05 03:11:02;;;;;;;5.10;2.50;;;;;;;9.29;70.62;95474.66;5035164;28;20179;-67
2021/05/05 03:13:28;;;;;;;2.03;0.97;;;;;;;9.30;70.77;95478.88;5035882;28;20678;-66
2021/05/05 03:15:54;;;;;;;2.70;0.80;;;;;;;9.34;70.13;95474.09;5019346;28;20214;-66
2021/05/05 03:18:19;;;;;;;2.90;0.90;;;;;;;9.43;70.46;95465.13;5037163;28;20482;-67
2021/05/05 03:20:45;;;;;;;4.27;1.30;;;;;;;9.47;69.91;95466.38;5033126;28;20274;-67
2021/05/05 03:23:10;;;;;;;1.43;0.87;;;;;;;9.28;70.72;95467.81;5034994;28;20200;-67
2021/05/05 03:25:36;;;;;;;3.33;1.60;;;;;;;9.12;70.43;95468.03;5033416;28;20204;-65
2021/05/05 03:28:02;;;;;;;2.00;1.20;;;;;;;9.29;70.56;95464.19;5033938;28;20184;-66
2021/05/05 03:30:27;;;;;;;1.20;1.00;;;;;;;9.41;69.91;95472.34;5034568;28;20531;-66
2021/05/05 03:32:53;;;;;;;1.80;0.90;;;;;;;9.11;70.76;95474.25;5030877;28;20650;-68
2021/05/05 03:35:18;;;;;;;6.30;1.93;;;;;;;9.06;70.92;95480.03;5029447;28;20203;-67
2021/05/05 03:37:44;;;;;;;5.07;1.17;;;;;;;8.75;72.61;95492.38;5050942;28;20230;-66
2021/05/05 03:40:10;;;;;;;1.70;0.97;;;;;;;8.66;73.01;95498.69;5035511;28;20237;-68
2021/05/05 03:42:36;;;;;;;3.77;1.20;;;;;;;8.07;74.99;95495.03;5035764;28;20267;-65
2021/05/05 03:45:04;;;;;;;3.00;1.17;;;;;;;8.85;72.78;95484.25;5033535;28;20474;-67
2021/05/05 03:47:30;;;;;;;2.40;1.00;;;;;;;8.46;73.49;95496.59;5035177;28;20190;-67
2021/05/05 03:49:56;;;;;;;1.60;1.10;;;;;;;8.26;73.75;95505.94;5034015;28;20430;-65
2021/05/05 03:52:21;;;;;;;2.50;1.20;;;;;;;8.50;73.35;95485.81;5037662;28;20240;-67
2021/05/05 03:54:47;;;;;;;1.80;1.20;;;;;;;8.32;73.84;95488.75;5033556;28;20231;-67
2021/05/05 03:57:13;;;;;;;1.60;1.30;;;;;;;8.43;73.29;95489.13;5034304;28;20196;-67
2021/05/05 03:59:38;;;;;;;1.30;0.87;;;;;;;8.53;72.90;95496.69;5033189;28;20187;-66
2021/05/05 04:02:04;;;;;;;1.50;1.03;;;;;;;7.90;74.08;95507.44;5034010;28;20186;-66
2021/05/05 04:04:29;;;;;;;2.33;0.90;;;;;;;7.46;75.61;95500.31;5031616;28;20204;-66
2021/05/05 04:06:56;;;;;;;3.80;1.03;;;;;;;7.87;74.05;95488.72;5033949;28;20186;-67
2021/05/05 04:09:22;;;;;;;3.07;1.20;;;;;;;7.90;73.85;95501.41;5033271;28;20180;-66
2021/05/05 04:11:49;;;;;;;4.07;1.20;;;;;;;7.98;73.26;95494.31;5033191;28;20912;-65
2021/05/05 04:14:14;;;;;;;5.40;1.43;;;;;;;8.05;72.86;95491.00;5033595;28;20477;-66
2021/05/05 04:16:40;;;;;;;3.93;1.33;;;;;;;8.08;72.68;95507.09;5033863;28;20462;-66
2021/05/05 04:19:05;;;;;;;2.73;1.00;;;;;;;8.15;72.27;95510.63;5032404;28;20548;-67
2021/05/05 04:21:31;;;;;;;3.20;1.10;;;;;;;8.18;72.17;95506.03;5033025;28;20325;-66
2021/05/05 04:23:57;;;;;;;1.77;0.77;;;;;;;7.15;74.73;95506.34;5034800;28;20703;-68
2021/05/05 04:26:23;;;;;;;1.50;0.80;;;;;;;7.91;72.85;95518.69;5032319;28;20172;-66
2021/05/05 04:28:49;;;;;;;1.40;0.77;;;;;;;7.94;72.29;95526.16;5033398;28;20191;-65
2021/05/05 04:31:14;;;;;;;1.07;0.83;;;;;;;7.91;72.02;95523.91;5033012;28;20187;-67
2021/05/05 04:33:42;;;;;;;1.00;0.70;;;;;;;8.10;71.58;95518.16;5032715;28;20525;-67
2021/05/05 04:36:08;;;;;;;2.73;1.20;;;;;;;7.98;71.78;95540.47;5033577;28;20279;-66
2021/05/05 04:38:33;;;;;;;3.20;0.97;;;;;;;7.51;73.22;95543.09;5035597;28;21015;-66
2021/05/05 04:40:59;;;;;;;3.17;1.00;;;;;;;7.65;72.72;95541.53;5023300;28;20194;-66
2021/05/05 04:43:24;;;;;;;3.70;1.10;;;;;;;7.93;72.52;95563.66;5048400;28;20226;-67
2021/05/05 04:45:50;;;;;;;1.23;0.73;;;;;;;7.56;72.73;95557.44;5048606;28;20195;-67
2021/05/05 04:48:16;;;;;;;1.27;0.73;;;;;;;7.39;73.97;95560.13;5032955;28;20180;-67
2021/05/05 04:50:42;;;;;;;1.83;1.37;;;;;;;7.34;74.94;95554.63;5032669;28;20184;-68
2021/05/05 04:53:08;;;;;;;1.50;0.80;;;;;;;7.77;73.49;95562.81;5033052;28;20426;-69
2021/05/05 04:55:34;;;;;;;1.20;0.70;;;;;;;8.23;72.73;95561.09;5032968;28;20201;-67
2021/05/05 04:57:59;;;;;;;1.30;0.80;;;;;;;7.83;73.24;95546.44;5023969;28;20834;-67
2021/05/05 05:00:25;;;;;;;2.47;1.00;;;;;;;7.77;73.41;95541.94;5030903;28;20730;-68
2021/05/05 05:02:51;;;;;;;3.30;1.17;;;;;;;7.82;72.89;95578.72;5048585;28;20489;-67
2021/05/05 05:05:17;;;;;;;3.10;1.00;;;;;;;7.48;74.16;95576.53;5034731;28;20528;-66
2021/05/05 05:07:42;;;;;;;3.00;0.80;;;;;;;8.23;71.85;95580.19;5035187;28;20283;-66
2021/05/05 05:10:09;;;;;;;1.50;1.13;;;;;;;8.05;72.61;95583.13;5033792;28;20275;-66
2021/05/05 05:12:34;;;;;;;1.60;1.50;;;;;;;8.09;73.20;95581.78;5031142;28;20191;-67
2021/05/05 05:15:01;;;;;;;1.93;1.03;;;;;;;8.20;72.88;95562.28;5031029;28;20442;-68
2021/05/05 05:17:26;;;;;;;3.73;0.90;;;;;;;7.56;73.96;95568.66;5033195;28;20568;-70
2021/05/05 05:19:52;;;;;;;4.17;0.90;;;;;;;7.94;73.62;95580.94;5029674;28;20440;-67
2021/05/05 05:22:17;;;;;;;1.80;1.20;;;;;;;7.70;74.53;95590.53;5030953;28;20191;-67
2021/05/05 05:24:43;;;;;;;2.90;0.90;;;;;;;7.77;73.91;95581.06;5031080;28;20219;-67
2021/05/05 05:27:09;;;;;;;1.00;0.90;;;;;;;8.05;73.52;95580.53;5033096;28;20179;-71
2021/05/05 05:29:34;;;;;;;2.93;1.23;;;;;;;8.45;71.89;95588.94;5040852;28;20179;-66
2021/05/05 05:32:00;;;;;;;2.60;1.20;;;;;;;8.40;71.35;95580.84;5037262;28;20184;-66
2021/05/05 05:34:26;;;;;;;8.50;1.50;;;;;;;7.50;76.19;95585.81;5036058;28;20698;-69
2021/05/05 05:36:51;;;;;;;1.63;1.07;;;;;;;7.74;74.41;95594.44;5037827;28;20203;-68
2021/05/05 05:39:17;;;;;;;2.60;1.03;;;;;;;7.59;75.98;95593.56;5037966;28;20208;-66
2021/05/05 05:41:42;;;;;;;4.50;1.20;;;;;;;7.95;73.51;95596.41;5034449;28;20187;-68
2021/05/05 05:44:08;;;;;;;2.03;1.00;;;;;;;7.81;73.94;95618.03;5032020;28;20207;-68
2021/05/05 05:46:38;;;;;;;2.23;1.07;;;;;;;8.17;72.42;95616.63;5034226;28;20615;-67
2021/05/05 05:49:07;;;;;;;1.97;1.30;;;;;;;7.59;73.70;95614.41;5023023;28;20179;-65
2021/05/05 05:51:34;;;;;;;6.57;1.60;;;;;;;8.06;72.07;95610.84;5030979;28;20913;-66
2021/05/05 05:54:00;;;;;;;1.93;1.30;;;;;;;7.71;73.71;95604.41;5030937;28;20454;-67
2021/05/05 05:56:25;;;;;;;2.47;1.30;;;;;;;7.59;74.27;95599.59;5032556;28;20513;-69
2021/05/05 05:58:51;;;;;;;3.03;1.47;;;;;;;7.69;73.68;95605.41;5033103;28;20187;-66
2021/05/05 06:01:16;;;;;;;4.20;1.50;;;;;;;7.96;73.02;95608.47;5034817;28;20211;-66
2021/05/05 06:03:42;;;;;;;5.30;1.27;;;;;;;7.76;72.60;95613.34;5034232;28;20315;-68
2021/05/05 06:06:08;;;;;;;3.77;1.30;;;;;;;7.99;71.54;95621.16;5035821;28;20639;-69
2021/05/05 06:08:33;;;;;;;3.77;1.60;;;;;;;8.22;69.92;95624.72;5035079;28;20172;-67
2021/05/05 06:10:59;;;;;;;7.93;2.10;;;;;;;8.09;70.01;95628.75;5026894;28;20176;-66
2021/05/05 06:13:25;;;;;;;3.50;1.33;;;;;;;8.06;70.25;95631.72;5037310;28;20266;-65
2021/05/05 06:15:51;;;;;;;3.57;1.83;;;;;;;8.37;69.13;95625.56;5035506;28;20275;-66
2021/05/05 06:18:17;;;;;;;4.13;1.73;;;;;;;8.30;69.03;95622.06;5039222;28;20473;-65
2021/05/05 06:20:42;;;;;;;6.03;1.80;;;;;;;8.22;68.83;95629.94;5044574;28;20187;-68
2021/05/05 06:23:08;;;;;;;6.30;1.80;;;;;;;8.29;68.74;95638.72;5052316;28;20192;-67
2021/05/05 06:25:34;;;;;;;8.77;1.90;;;;;;;8.09;68.74;95649.63;5052761;28;20211;-67
2021/05/05 06:28:00;;;;;;;5.33;1.80;;;;;;;7.98;69.30;95655.25;5037662;28;20529;-71
2021/05/05 06:30:25;;;;;;;4.73;1.90;;;;;;;8.49;68.45;95653.91;5040220;28;20775;-67
2021/05/05 06:32:51;;;;;;;5.77;2.27;;;;;;;8.55;68.71;95654.00;5042707;28;20190;-66
2021/05/05 06:35:17;;;;;;;8.27;2.43;;;;;;;8.27;69.50;95659.75;5043984;28;20481;-67
2021/05/05 06:37:42;;;;;;;8.37;2.63;;;;;;;8.66;69.16;95659.78;5045168;28;20204;-67
2021/05/05 06:40:09;;;;;;;3.97;2.23;;;;;;;8.87;68.56;95669.53;5047470;28;20259;-68
2021/05/05 06:42:35;;;;;;;11.47;2.73;;;;;;;8.43;68.24;95671.88;5046049;28;20180;-66
2021/05/05 06:45:02;;;;;;;4.37;2.37;;;;;;;8.61;68.38;95670.75;5055552;28;20446;-67
2021/05/05 06:47:27;;;;;;;8.27;2.60;;;;;;;8.54;68.05;95675.88;5055135;28;20414;-67
2021/05/05 06:49:53;;;;;;;10.77;2.60;;;;;;;8.28;68.57;95676.22;5037020;28;20499;-69
2021/05/05 06:52:19;;;;;;;7.47;2.13;;;;;;;8.65;67.58;95677.25;5037644;28;20604;-66
2021/05/05 06:54:44;;;;;;;6.23;2.20;;;;;;;9.58;65.28;95671.66;5018647;28;20208;-67
2021/05/05 06:57:10;;;;;;;6.70;2.30;;;;;;;9.74;63.08;95683.72;5035676;28;20216;-66
2021/05/05 06:59:36;;;;;;;10.63;2.00;;;;;;;10.02;61.35;95687.44;5042208;28;20187;-67
2021/05/05 07:02:02;;;;;;;7.83;1.80;;;;;;;9.62;61.02;95686.00;5036838;28;20498;-66
2021/05/05 07:04:27;;;;;;;5.80;2.13;;;;;;;9.67;61.09;95696.72;5039620;28;20199;-66
2021/05/05 07:06:54;;;;;;;7.13;1.97;;;;;;;9.42;61.00;95690.97;5037855;28;20245;-68
2021/05/05 07:09:20;;;;;;;2.50;1.80;;;;;;;9.51;60.91;95694.31;5038394;28;20485;-65
2021/05/05 07:11:46;;;;;;;5.80;1.87;;;;;;;9.48;60.58;95690.25;5041557;28;20477;-67
2021/05/05 07:14:11;;;;;;;6.40;1.90;;;;;;;9.61;59.58;95696.66;5036954;28;20295;-68
2021/05/05 07:16:37;;;;;;;3.40;1.97;;;;;;;9.85;59.18;95692.88;5038913;28;20267;-68
2021/05/05 07:19:03;;;;;;;4.97;1.67;;;;;;;9.93;59.50;95690.16;5040072;28;20677;-66
2021/05/05 07:21:30;;;;;;;3.00;1.83;;;;;;;9.78;59.46;95703.28;5039849;28;20195;-67
2021/05/05 07:23:59;;;;;;;3.87;1.77;;;;;;;9.78;59.40;95710.31;5035333;28;20446;-67
2021/05/05 07:26:25;;;;;;;6.60;1.87;;;;;;;9.60;59.13;95701.06;5037425;28;20421;-67
2021/05/05 07:28:50;;;;;;;3.73;1.53;;;;;;;10.10;57.82;95710.84;5035428;28;21212;-66
2021/05/05 07:31:19;;;;;;;6.17;1.83;;;;;;;10.20;55.79;95713.19;5051257;28;20533;-68
2021/05/05 07:33:46;;;;;;;7.90;2.27;;;;;;;9.79;54.17;95704.91;5034211;28;20285;-67
2021/05/05 07:36:17;;;;;;;4.30;1.70;;;;;;;9.40;54.49;95718.31;5034396;28;20771;-67
2021/05/05 07:44:41;;;;;;;5.57;1.43;;;;;;;9.30;52.78;95722.00;5040983;28;20446;-66
2021/05/05 07:49:18;;;;;;;8.10;1.70;;;;;;;8.45;49.90;95737.75;5036944;28;20442;-67
2021/05/05 07:51:45;;;;;;;6.30;1.83;;;;;;;8.60;49.33;95747.47;5037608;28;20183;-68
2021/05/05 07:54:12;;;;;;;10.30;1.87;;;;;;;8.75;50.14;95744.94;5036267;28;20446;-65
2021/05/05 07:56:38;;;;;;;11.83;2.33;;;;;;;9.05;51.22;95750.19;5038176;28;20422;-69
2021/05/05 07:59:04;;;;;;;9.10;2.20;;;;;;;9.33;49.24;95750.38;5038141;28;20803;-68
2021/05/05 08:01:32;;;;;;;5.37;1.60;;;;;;;9.12;48.42;95756.34;5038100;28;20176;-66
2021/05/05 08:03:58;;;;;;;6.90;1.87;;;;;;;9.60;46.56;95740.28;5022832;28;20468;-68
2021/05/05 08:06:25;;;;;;;5.03;1.87;;;;;;;9.73;46.80;95750.13;5034842;28;20431;-70
2021/05/05 08:08:51;;;;;;;5.50;1.77;;;;;;;9.86;46.78;95748.66;5040943;28;20428;-68
2021/05/05 08:11:17;;;;;;;6.10;1.97;;;;;;;10.39;44.80;95743.19;5008123;28;20433;-67
2021/05/05 08:13:44;;;;;;;3.80;1.70;;;;;;;10.98;44.00;95747.34;5036999;28;20941;-67
2021/05/05 08:16:10;;;;;;;27.13;9.80;;;;;;;10.89;44.26;95736.19;5037304;28;20176;-68
2021/05/05 08:18:36;;;;;;;29.00;6.77;;;;;;;11.05;43.88;95742.16;5039414;28;20453;-70
2021/05/05 08:21:05;;;;;;;6.10;1.60;;;;;;;10.59;44.66;95736.31;5043637;28;20444;-69
2021/05/05 08:23:31;;;;;;;8.33;2.70;;;;;;;9.81;45.86;95759.66;5020223;28;20495;-67
2021/05/05 08:25:56;;;;;;;18.30;4.73;;;;;;;10.06;45.85;95752.31;5017235;28;20506;-69
2021/05/05 08:28:22;;;;;;;7.03;2.57;;;;;;;9.71;46.00;95752.09;5034585;28;20536;-68
2021/05/05 08:30:48;;;;;;;3.77;1.80;;;;;;;9.67;46.19;95762.13;5032301;28;20180;-67
2021/05/05 08:33:14;;;;;;;9.27;1.90;;;;;;;9.65;47.11;95766.72;5035843;28;20175;-70
2021/05/05 08:35:40;;;;;;;17.07;4.07;;;;;;;9.41;46.71;95764.38;5032132;28;21204;-67
2021/05/05 08:38:06;;;;;;;5.27;2.53;;;;;;;9.60;46.80;95761.22;5031706;28;20223;-67
2021/05/05 08:40:32;;;;;;;14.50;3.67;;;;;;;10.14;45.32;95754.78;5032666;28;20847;-68
2021/05/05 08:42:59;;;;;;;18.13;4.10;;;;;;;10.07;45.41;95755.75;5045933;28;20521;-68
2021/05/05 08:45:26;;;;;;;7.40;2.53;;;;;;;9.90;45.63;95765.59;5031901;28;20439;-68
2021/05/05 08:47:54;;;;;;;4.90;1.57;;;;;;;9.16;45.44;95754.19;5032609;28;20430;-67
2021/05/05 08:50:23;;;;;;;4.70;1.73;;;;;;;9.68;46.08;95765.53;5030220;28;20434;-67
2021/05/05 08:52:48;;;;;;;2.40;1.50;;;;;;;9.80;45.41;95764.06;5033595;28;20422;-67
2021/05/05 08:55:16;;;;;;;8.03;1.87;;;;;;;9.96;44.72;95764.88;5033417;28;20438;-69
2021/05/05 08:57:42;;;;;;;6.17;1.60;;;;;;;10.12;44.59;95769.06;5034643;28;20297;-68
2021/05/05 09:00:09;;;;;;;2.60;1.40;;;;;;;11.24;43.43;95750.31;5032657;28;20429;-67
2021/05/05 09:02:34;;;;;;;6.63;1.60;;;;;;;11.27;42.43;95755.19;5039029;28;20182;-67
2021/05/05 09:05:08;;;;;;;4.03;2.13;;;;;;;10.75;43.95;95752.78;5033610;28;20866;-68
2021/05/05 09:07:35;;;;;;;6.53;1.70;;;;;;;10.68;43.99;95750.13;5034825;28;20183;-68
2021/05/05 09:10:08;;;;;;;6.77;1.80;;;;;;;11.27;42.48;95747.31;5031290;28;20418;-67
2021/05/05 09:12:36;;;;;;;8.87;2.17;;;;;;;11.50;41.26;95755.72;5013832;28;20469;-68
2021/05/05 09:15:18;;;;;;;4.30;2.07;;;;;;;10.79;41.81;95754.03;5013950;28;20860;-67
2021/05/05 09:17:52;;;;;;;6.57;2.13;;;;;;;10.57;42.13;95771.56;5031053;28;20565;-68
2021/05/05 09:20:30;;;;;;;7.90;2.13;;;;;;;11.43;41.74;95760.13;5033937;28;20428;-67
2021/05/05 09:23:05;;;;;;;4.50;1.70;;;;;;;11.07;42.08;95763.75;5033038;28;20450;-67
2021/05/05 09:25:31;;;;;;;7.33;1.90;;;;;;;10.25;44.32;95763.97;5032819;28;20438;-68
2021/05/05 09:28:26;;;;;;;5.67;2.10;;;;;;;10.27;44.29;95769.06;5033745;28;20469;-67
2021/05/05 09:30:54;;;;;;;11.33;1.70;;;;;;;10.42;45.58;95787.34;4975820;28;20213;-68
2021/05/05 09:33:29;;;;;;;3.87;1.70;;;;;;;10.10;46.81;95781.53;4992991;28;20583;-70
2021/05/05 09:36:00;;;;;;;3.13;1.80;;;;;;;10.40;46.25;95784.09;4992694;28;20455;-68
2021/05/05 09:38:50;;;;;;;6.40;1.77;;;;;;;10.80;44.36;95771.38;4974492;28;20987;-68
2021/05/05 09:41:20;;;;;;;3.70;1.67;;;;;;;10.81;42.13;95765.16;4984948;28;20975;-68
2021/05/05 09:43:46;;;;;;;5.90;1.97;;;;;;;10.32;42.88;95768.50;4987962;28;20467;-68
2021/05/05 09:46:46;;;;;;;5.93;1.97;;;;;;;11.01;42.35;95777.59;4974375;28;20528;-69
2021/05/05 09:49:34;;;;;;;2.60;1.30;;;;;;;10.78;41.21;95769.94;4992952;28;20211;-67
2021/05/05 09:52:05;;;;;;;4.17;1.80;;;;;;;11.30;39.74;95752.97;4966570;28;20417;-67
2021/05/05 09:54:31;;;;;;;4.97;1.67;;;;;;;11.84;37.35;95754.06;4991302;28;20448;-68
2021/05/05 09:57:21;;;;;;;2.90;1.40;;;;;;;12.11;37.56;95764.69;4986419;28;20461;-69
2021/05/05 10:00:06;;;;;;;3.60;1.70;;;;;;;11.66;36.06;95756.44;4994061;28;20230;-66
2021/05/05 10:02:45;;;;;;;3.97;1.60;;;;;;;11.82;35.68;95761.34;4991832;28;20412;-65
2021/05/05 10:05:15;;;;;;;3.87;1.87;;;;;;;11.67;36.57;95758.84;4986996;28;20439;-67
2021/05/05 10:07:56;;;;;;;4.40;1.87;;;;;;;12.22;36.59;95767.78;5021873;28;20430;-67
2021/05/05 10:10:25;;;;;;;4.93;1.80;;;;;;;12.23;36.21;95777.25;5035624;28;20471;-67
2021/05/05 10:12:51;;;;;;;2.57;1.40;;;;;;;12.27;35.32;95770.63;5037475;28;20426;-69
2021/05/05 10:15:17;;;;;;;4.73;1.60;;;;;;;12.60;35.58;95798.81;5032163;28;20438;-70
2021/05/05 10:17:47;;;;;;;7.27;1.70;;;;;;;11.93;34.89;95788.84;5035908;28;21247;-70
2021/05/05 10:20:15;;;;;;;2.53;1.60;;;;;;;12.54;34.52;95786.44;5042404;28;20183;-67
2021/05/05 10:22:42;;;;;;;6.30;1.80;;;;;;;12.18;35.75;95777.84;5036559;28;20438;-69
2021/05/05 10:25:08;;;;;;;4.63;1.60;;;;;;;12.29;35.78;95784.38;5026495;28;20437;-69
2021/05/05 10:27:34;;;;;;;3.37;1.37;;;;;;;12.49;35.62;95780.97;5043778;28;20464;-69
2021/05/05 10:30:00;;;;;;;4.70;1.43;;;;;;;12.79;35.58;95793.75;5038894;28;20457;-70
2021/05/05 10:32:32;;;;;;;8.10;1.60;;;;;;;12.26;35.40;95793.47;5035854;28;20882;-70
2021/05/05 10:34:58;;;;;;;5.73;1.57;;;;;;;12.04;35.74;95803.25;5040770;28;20306;-71
2021/05/05 10:37:45;;;;;;;8.67;1.67;;;;;;;12.55;34.97;95788.88;5037628;28;21138;-69
2021/05/05 10:40:22;;;;;;;4.27;1.43;;;;;;;12.39;35.34;95799.75;5031902;28;20190;-67
2021/05/05 10:43:04;;;;;;;4.77;1.43;;;;;;;12.64;35.24;95792.13;5035674;28;20425;-68
2021/05/05 10:45:45;;;;;;;5.63;1.17;;;;;;;13.10;34.83;95808.94;5040822;28;20457;-68
2021/05/05 10:48:15;;;;;;;6.90;1.17;;;;;;;12.47;35.37;95815.31;5058660;28;20438;-70
2021/05/05 10:50:58;;;;;;;3.70;1.50;;;;;;;11.27;37.47;95820.75;5040287;28;20434;-67
2021/05/05 10:53:24;;;;;;;3.30;1.30;;;;;;;11.01;38.10;95880.66;5037253;28;20436;-69
2021/05/05 10:55:53;;;;;;;2.07;1.10;;;;;;;8.58;52.39;95908.75;5041419;28;20472;-68
2021/05/05 10:58:28;;;;;;;1.20;0.80;;;;;;;7.35;61.29;95958.44;5042576;28;20561;-67
2021/05/05 11:01:01;;;;;;;1.80;0.93;;;;;;;7.18;65.69;95960.19;5050470;28;20419;-67
2021/05/05 11:03:41;;;;;;;1.10;0.80;;;;;;;6.37;69.20;95967.63;5048663;28;20822;-68
2021/05/05 11:06:29;;;;;;;1.20;0.90;;;;;;;6.29;71.49;95939.81;5038571;28;20437;-67
2021/05/05 11:08:56;;;;;;;3.17;1.20;;;;;;;5.98;72.21;95974.06;5036264;28;20524;-66
2021/05/05 11:11:38;;;;;;;1.87;1.27;;;;;;;6.22;72.16;95985.63;5035892;28;21142;-67
2021/05/05 11:14:04;;;;;;;2.30;1.37;;;;;;;6.07;72.12;96010.56;5035974;28;20453;-66
2021/05/05 11:16:51;;;;;;;2.37;1.47;;;;;;;6.15;72.11;95997.63;5035036;28;20427;-67
2021/05/05 11:19:35;;;;;;;3.10;1.50;;;;;;;6.03;71.80;95994.44;5030303;28;20176;-68
2021/05/05 11:22:05;;;;;;;1.50;1.37;;;;;;;6.35;71.42;95997.38;5026372;28;20941;-69
2021/05/05 11:24:33;;;;;;;1.70;1.17;;;;;;;6.83;71.50;95985.53;5033534;28;20935;-67
2021/05/05 11:27:00;;;;;;;1.20;1.10;;;;;;;6.74;69.70;95983.88;5025511;28;20431;-69
2021/05/05 11:29:40;;;;;;;2.87;2.17;;;;;;;7.53;69.72;95989.56;5045119;28;20419;-69
2021/05/05 11:32:15;;;;;;;3.03;0.97;;;;;;;7.13;68.30;96001.56;5031875;28;20422;-67
2021/05/05 11:34:44;;;;;;;1.50;1.00;;;;;;;7.24;66.99;95984.81;5018146;28;20481;-68
2021/05/05 11:37:26;;;;;;;2.70;1.43;;;;;;;7.62;66.54;95987.78;5033699;28;20461;-68
2021/05/05 11:39:59;;;;;;;2.33;1.83;;;;;;;7.64;66.62;95977.16;5034828;28;20480;-68
2021/05/05 11:42:27;;;;;;;4.43;1.33;;;;;;;7.30;66.46;95980.75;5032605;28;20427;-68
2021/05/05 11:44:54;;;;;;;1.10;1.00;;;;;;;8.11;65.36;95983.47;5031233;28;20446;-66
2021/05/05 11:47:29;;;;;;;1.80;1.17;;;;;;;8.36;63.90;95980.78;5032105;28;20414;-67
2021/05/05 11:49:56;;;;;;;1.30;1.20;;;;;;;8.74;62.17;95987.03;5031950;28;20434;-68